Time;durP1;ratioP1;P1;durP2;ratioP2;P2;SDS_P1;SDS_P2;PMS_P1;PMS_P2;Temp;Humidity;BMP_temperature;BMP_pressure;BME280_temperature;BME280_humidity;BME280_pressure;Samples;Min_cycle;Max_cycle;Signal;HPM_P1;HPM_P2
2021/10/25 00:04:56;;;;;;;6.53;4.40;;;;;;;5.79;67.28;100878.88;8523994;33;20148;-75
2021/10/25 00:10:02;;;;;;;6.65;4.43;;;;;;;5.80;67.47;100880.59;8524342;33;21007;-75
2021/10/25 00:15:06;;;;;;;9.43;5.68;;;;;;;5.83;67.36;100875.09;8523011;33;20399;-75
2021/10/25 00:20:13;;;;;;;9.15;5.53;;;;;;;5.75;67.27;100874.63;8508239;33;20199;-75
2021/10/25 00:25:17;;;;;;;6.97;4.82;;;;;;;5.65;67.83;100868.94;8541535;33;20141;-75
2021/10/25 00:30:20;;;;;;;5.70;4.50;;;;;;;5.60;68.08;100864.78;8541539;33;20417;-75
2021/10/25 00:35:23;;;;;;;6.68;5.10;;;;;;;5.49;68.17;100866.22;8513778;33;20991;-75
2021/10/25 00:40:28;;;;;;;6.40;4.82;;;;;;;5.55;68.05;100870.34;8517994;33;20539;-75
2021/10/25 00:45:31;;;;;;;7.95;5.03;;;;;;;5.52;68.34;100870.53;8527234;33;21144;-74
2021/10/25 00:50:34;;;;;;;7.60;5.00;;;;;;;5.50;68.33;100853.75;8527799;33;20426;-76
2021/10/25 00:55:40;;;;;;;7.47;4.90;;;;;;;5.48;68.42;100863.63;8502770;33;20459;-75
2021/10/25 01:00:43;;;;;;;6.45;5.22;;;;;;;5.49;68.56;100868.03;8527454;33;20465;-75
2021/10/25 01:05:46;;;;;;;9.48;5.53;;;;;;;5.47;68.74;100861.91;8526300;33;20424;-74
2021/10/25 01:10:51;;;;;;;9.75;5.22;;;;;;;5.53;68.73;100866.03;8530335;33;20821;-75
2021/10/25 01:15:55;;;;;;;5.13;4.63;;;;;;;5.54;68.58;100865.09;8530909;33;20179;-75
2021/10/25 01:21:01;;;;;;;7.63;5.30;;;;;;;5.48;68.64;100863.63;8540056;33;20425;-75
2021/10/25 01:26:05;;;;;;;5.40;4.47;;;;;;;5.43;68.63;100857.66;8540383;33;20173;-75
2021/10/25 01:31:09;;;;;;;7.43;5.10;;;;;;;5.33;68.81;100861.75;8522595;33;20226;-75
2021/10/25 01:36:14;;;;;;;6.22;4.88;;;;;;;5.33;68.96;100864.44;8544331;33;20369;-75
2021/10/25 01:41:18;;;;;;;6.70;4.88;;;;;;;5.31;68.87;100859.16;8523381;33;20153;-75
2021/10/25 01:46:22;;;;;;;9.95;5.60;;;;;;;5.31;68.92;100863.63;8524828;33;20156;-75
2021/10/25 01:51:26;;;;;;;6.45;4.50;;;;;;;5.32;68.67;100852.03;8540196;33;20459;-75
2021/10/25 01:56:30;;;;;;;9.15;4.95;;;;;;;5.36;69.08;100842.94;8540784;33;20441;-75
2021/10/25 02:01:33;;;;;;;7.13;4.75;;;;;;;5.34;68.93;100850.16;8516526;33;20776;-75
2021/10/25 02:06:38;;;;;;;8.85;4.82;;;;;;;5.33;68.96;100854.63;8513815;33;20547;-75
2021/10/25 02:11:41;;;;;;;10.85;5.40;;;;;;;5.40;68.95;100847.16;8526308;33;20437;-75
2021/10/25 02:16:46;;;;;;;7.85;4.63;;;;;;;5.38;69.00;100849.06;8484533;28;20146;-75
2021/10/25 02:21:50;;;;;;;5.40;4.55;;;;;;;5.38;68.77;100841.94;8478353;33;20142;-75
2021/10/25 02:26:55;;;;;;;7.82;4.85;;;;;;;5.35;69.19;100834.09;8472714;34;20197;-75
2021/10/25 02:32:03;;;;;;;10.75;6.63;;;;;;;5.35;69.05;100833.22;8471566;34;20656;-75
2021/10/25 02:37:07;;;;;;;7.18;5.05;;;;;;;5.28;69.46;100830.88;8494440;33;20437;-75
2021/10/25 02:42:12;;;;;;;9.63;5.18;;;;;;;5.27;69.65;100829.16;8495064;33;20150;-75
2021/10/25 02:47:17;;;;;;;9.68;5.00;;;;;;;5.22;69.70;100823.22;8474871;34;20141;-75
2021/10/25 02:52:22;;;;;;;6.97;5.10;;;;;;;5.32;69.85;100810.28;8487008;34;20415;-75
2021/10/25 02:57:26;;;;;;;5.30;4.55;;;;;;;5.47;69.59;100804.13;8486832;34;20234;-76
2021/10/25 03:02:32;;;;;;;6.30;4.40;;;;;;;5.59;69.32;100815.94;8487533;34;20152;-74
2021/10/25 03:07:36;;;;;;;7.45;4.47;;;;;;;5.64;68.92;100807.69;8495350;33;20160;-75
2021/10/25 03:12:40;;;;;;;8.73;5.10;;;;;;;5.80;68.87;100794.41;8472361;33;20929;-75
2021/10/25 03:17:44;;;;;;;8.93;5.22;;;;;;;5.77;69.02;100800.78;8493805;33;21088;-76
2021/10/25 03:23:03;;;;;;;9.75;5.55;;;;;;;5.73;68.72;100807.19;8470457;34;20135;-75
2021/10/25 03:28:08;;;;;;;7.07;4.80;;;;;;;5.67;68.54;100794.22;8492122;33;21110;-75
2021/10/25 03:33:12;;;;;;;7.40;4.45;;;;;;;5.59;68.98;100789.28;8492536;33;20649;-75
2021/10/25 03:38:37;;;;;;;6.13;5.03;;;;;;;5.42;69.39;100774.19;8468634;34;20227;-75
2021/10/25 03:43:46;;;;;;;6.60;5.15;;;;;;;5.43;69.57;100783.06;8470201;34;20477;-75
2021/10/25 03:48:55;;;;;;;6.55;5.05;;;;;;;5.41;69.60;100772.50;8470285;34;20427;-75
2021/10/25 03:54:15;;;;;;;8.40;5.57;;;;;;;5.39;69.76;100781.50;8470137;34;20508;-75
2021/10/25 04:26:49;;;;;;;10.50;5.20;;;;;;;5.09;70.56;100786.63;8464220;34;20181;-77
2021/10/25 04:31:53;;;;;;;8.23;5.32;;;;;;;5.12;70.59;100781.16;8491046;33;20149;-76
2021/10/25 04:36:56;;;;;;;6.07;4.55;;;;;;;5.07;70.47;100776.06;8467243;34;20448;-76
2021/10/25 04:42:16;;;;;;;8.25;5.50;;;;;;;5.04;70.50;100784.19;8462985;34;20487;-76
2021/10/25 04:47:19;;;;;;;7.63;5.20;;;;;;;5.04;70.74;100781.53;8461707;34;21085;-76
2021/10/25 04:52:27;;;;;;;6.93;4.70;;;;;;;4.98;70.73;100784.50;8490866;33;20137;-76
2021/10/25 04:57:31;;;;;;;8.35;5.53;;;;;;;4.95;71.34;100782.84;8478557;34;20155;-75
2021/10/25 05:02:35;;;;;;;8.30;5.68;;;;;;;4.91;71.11;100769.75;8507087;33;20244;-76
2021/10/25 05:07:39;;;;;;;8.25;5.40;;;;;;;4.79;70.89;100773.91;8484166;34;20977;-74
2021/10/25 05:12:45;;;;;;;8.68;5.55;;;;;;;4.70;71.44;100764.59;8484805;34;20421;-76
2021/10/25 05:17:48;;;;;;;10.30;5.28;;;;;;;4.60;71.76;100764.19;8486743;34;20192;-76
2021/10/25 05:22:51;;;;;;;9.88;5.75;;;;;;;4.52;72.12;100761.06;8489359;34;20146;-76
2021/10/25 05:27:55;;;;;;;9.35;6.03;;;;;;;4.51;72.37;100753.16;8489217;34;20150;-75
2021/10/25 05:32:58;;;;;;;9.38;5.40;;;;;;;4.54;72.59;100743.22;8480742;33;20451;-76
2021/10/25 05:38:02;;;;;;;11.70;5.82;;;;;;;4.63;72.58;100736.56;8450804;34;20249;-75
2021/10/25 05:43:07;;;;;;;11.02;6.55;;;;;;;4.77;72.13;100736.75;8478998;34;20645;-75
2021/10/25 05:48:10;;;;;;;13.23;6.68;;;;;;;4.93;72.30;100735.94;8468664;34;20412;-75
2021/10/25 05:53:14;;;;;;;9.18;5.20;;;;;;;4.99;71.59;100741.88;8469887;33;20489;-76
2021/10/25 05:58:20;;;;;;;8.82;5.47;;;;;;;5.04;71.31;100734.47;8494613;33;20410;-75
2021/10/25 06:03:28;;;;;;;7.95;5.45;;;;;;;5.12;71.22;100739.41;8465905;34;20434;-76
2021/10/25 06:08:31;;;;;;;7.93;5.40;;;;;;;5.17;70.91;100739.16;8471108;34;20142;-76
2021/10/25 06:13:38;;;;;;;8.13;5.25;;;;;;;5.12;71.18;100743.88;8470042;33;20787;-76
2021/10/25 06:18:47;;;;;;;9.25;5.75;;;;;;;5.14;71.05;100745.50;8468480;34;20161;-75
2021/10/25 06:23:55;;;;;;;13.32;5.72;;;;;;;4.90;70.85;100746.75;8491745;33;20460;-75
2021/10/25 06:29:22;;;;;;;8.07;5.32;;;;;;;4.81;71.66;100756.09;8491480;33;20160;-76
2021/10/25 06:34:33;;;;;;;11.68;5.70;;;;;;;4.98;72.16;100764.06;8468358;34;20153;-75
2021/10/25 06:39:55;;;;;;;9.68;5.75;;;;;;;5.17;71.21;100756.00;8469584;34;20430;-75
2021/10/25 06:45:01;;;;;;;9.15;6.63;;;;;;;5.22;71.41;100759.28;8468277;34;20149;-76
2021/10/25 06:50:12;;;;;;;9.38;6.40;;;;;;;5.49;71.13;100756.09;8472767;34;21290;-76
2021/10/25 06:55:23;;;;;;;13.02;6.68;;;;;;;5.78;70.11;100769.63;8482422;34;20344;-76
2021/10/25 07:00:35;;;;;;;11.52;5.43;;;;;;;5.91;69.31;100760.88;8505283;33;20150;-76
2021/10/25 07:05:39;;;;;;;9.10;5.75;;;;;;;5.78;68.78;100783.81;8472700;34;20428;-76
2021/10/25 07:10:45;;;;;;;4.95;3.53;;;;;;;5.83;69.15;100770.25;8479451;34;20440;-76
2021/10/25 07:16:01;;;;;;;6.78;4.93;;;;;;;6.18;68.61;100774.47;8497072;33;20976;-77
2021/10/25 08:09:52;;;;;;;8.13;4.55;;;;;;;8.95;61.18;100771.56;8494422;33;20153;-76
2021/10/25 08:14:57;;;;;;;8.57;4.30;;;;;;;9.39;59.94;100766.78;8473108;34;20439;-75
2021/10/25 08:20:05;;;;;;;5.43;3.78;;;;;;;9.76;59.10;100764.16;8469795;34;20245;-75
2021/10/25 08:25:10;;;;;;;6.78;4.38;;;;;;;9.89;58.82;100773.09;8466887;34;20429;-75
2021/10/25 08:30:31;;;;;;;6.18;3.85;;;;;;;10.20;58.19;100766.34;8489026;33;20496;-75
2021/10/25 08:35:50;;;;;;;10.30;3.83;;;;;;;10.60;57.08;100763.38;8487133;33;20253;-76
2021/10/25 08:41:13;;;;;;;6.80;4.22;;;;;;;10.74;56.98;100760.50;8465085;34;21317;-76
2021/10/25 08:46:19;;;;;;;7.10;4.00;;;;;;;11.19;55.43;100759.81;8462156;34;20450;-76
2021/10/25 08:51:30;;;;;;;6.70;4.55;;;;;;;11.59;55.08;100764.75;8462307;34;20428;-76
2021/10/25 08:56:34;;;;;;;8.05;3.97;;;;;;;12.11;53.49;100765.94;8466395;34;20149;-76
2021/10/25 09:01:49;;;;;;;3.92;3.50;;;;;;;12.25;53.42;100764.81;8468456;34;20459;-75
2021/10/25 09:07:04;;;;;;;4.95;3.42;;;;;;;11.79;53.29;100769.41;8468362;34;20240;-76
2021/10/25 09:12:11;;;;;;;5.78;3.33;;;;;;;11.72;54.78;100778.97;8469943;34;20399;-76
2021/10/25 09:17:20;;;;;;;4.57;3.60;;;;;;;11.66;54.18;100780.31;8467759;34;20917;-75
2021/10/25 09:22:28;;;;;;;4.95;3.25;;;;;;;11.46;55.51;100783.69;8468514;34;20137;-76
2021/10/25 09:27:34;;;;;;;4.75;3.67;;;;;;;11.38;55.41;100778.06;8467072;34;20133;-76
2021/10/25 09:32:42;;;;;;;4.25;3.65;;;;;;;12.07;53.36;100770.75;8490534;33;20426;-75
2021/10/25 09:38:22;;;;;;;6.07;3.55;;;;;;;12.03;53.72;100768.41;8467702;34;20244;-75
2021/10/25 09:45:03;;;;;;;4.70;3.22;;;;;;;12.39;52.61;100759.19;8487993;33;20423;-75
2021/10/25 09:49:08;;;;;;;5.80;3.65;;;;;;;12.91;51.26;100749.41;8462425;33;20522;-75
2021/10/25 09:54:13;;;;;;;5.57;3.38;;;;;;;12.87;51.59;100752.50;8457785;34;20419;-75
2021/10/25 09:59:31;;;;;;;3.60;2.88;;;;;;;13.34;50.90;100745.72;8455648;34;20260;-75
2021/10/25 10:04:35;;;;;;;3.67;2.83;;;;;;;12.92;50.96;100750.28;8480583;33;20428;-75
2021/10/25 10:10:10;;;;;;;3.97;3.47;;;;;;;12.32;51.84;100750.75;8457865;34;20443;-75
2021/10/25 10:15:20;;;;;;;3.80;3.10;;;;;;;12.94;50.56;100741.03;8462387;34;20196;-75
2021/10/25 10:20:28;;;;;;;4.05;3.50;;;;;;;12.75;51.88;100741.78;8484363;33;20498;-75
2021/10/25 10:25:38;;;;;;;6.93;3.30;;;;;;;11.94;53.44;100748.47;8479236;33;20277;-75
2021/10/25 10:30:58;;;;;;;4.97;3.40;;;;;;;12.43;51.09;100752.56;8455578;34;20245;-75
2021/10/25 10:36:21;;;;;;;3.95;3.28;;;;;;;13.28;50.30;100736.31;8459852;34;20537;-75
2021/10/25 10:41:39;;;;;;;4.18;3.63;;;;;;;12.45;51.89;100728.16;8486864;33;20473;-75
2021/10/25 10:47:01;;;;;;;6.07;4.00;;;;;;;13.15;50.61;100730.28;8466684;34;20463;-75
2021/10/25 10:52:27;;;;;;;4.35;3.55;;;;;;;13.59;50.07;100730.09;8463016;34;20430;-75
2021/10/25 11:03:22;;;;;;;5.47;3.75;;;;;;;13.23;49.50;100726.91;8465959;34;20406;-75
2021/10/25 11:08:33;;;;;;;6.63;4.47;;;;;;;14.02;47.89;100720.88;8461528;34;20423;-76
2021/10/25 11:13:43;;;;;;;5.95;3.30;;;;;;;15.05;45.78;100712.22;8467433;34;20629;-76
2021/10/25 11:18:49;;;;;;;5.10;3.28;;;;;;;15.02;45.33;100710.66;8471315;34;20145;-75
2021/10/25 11:23:55;;;;;;;5.00;3.55;;;;;;;16.31;42.90;100713.56;8486133;33;21051;-76
2021/10/25 11:29:09;;;;;;;6.35;3.80;;;;;;;15.99;42.82;100724.84;8459806;34;20149;-75
2021/10/25 11:34:18;;;;;;;4.45;3.47;;;;;;;16.68;41.79;100713.41;8462169;34;20145;-75
2021/10/25 11:39:30;;;;;;;4.90;3.08;;;;;;;17.01;40.79;100716.38;8462206;34;20440;-75
2021/10/25 11:44:35;;;;;;;5.32;3.47;;;;;;;17.02;41.94;100699.94;8467568;34;20451;-75
2021/10/25 11:49:38;;;;;;;5.88;3.55;;;;;;;17.46;40.29;100691.75;8471555;34;21121;-76
2021/10/25 11:54:48;;;;;;;5.05;3.63;;;;;;;17.61;40.02;100692.00;8470190;34;20634;-76
2021/10/25 12:00:05;;;;;;;6.03;3.35;;;;;;;17.88;39.65;100684.63;8471187;34;20173;-76
2021/10/25 12:05:25;;;;;;;4.68;3.53;;;;;;;18.47;39.66;100681.88;8494139;33;20823;-75
2021/10/25 12:10:31;;;;;;;4.53;3.58;;;;;;;18.69;38.60;100680.38;8467472;34;20835;-76
2021/10/25 12:15:42;;;;;;;5.75;3.50;;;;;;;18.48;39.79;100667.25;8464324;34;20247;-76
2021/10/25 12:20:45;;;;;;;5.07;3.53;;;;;;;18.73;39.24;100649.94;8464810;34;20430;-76
2021/10/25 12:26:00;;;;;;;4.10;3.30;;;;;;;18.88;38.98;100652.81;8461026;34;20130;-76
2021/10/25 12:31:09;;;;;;;4.35;3.20;;;;;;;17.21;41.62;100649.19;8465997;34;20236;-75
2021/10/25 12:36:14;;;;;;;8.10;4.10;;;;;;;16.55;43.29;100650.59;8468237;34;20450;-76
2021/10/25 12:41:17;;;;;;;4.18;3.50;;;;;;;16.27;44.53;100656.09;8467140;34;20142;-76
2021/10/25 12:46:22;;;;;;;5.40;3.60;;;;;;;18.19;41.06;100648.72;8467965;33;20697;-76
2021/10/25 12:51:34;;;;;;;5.75;3.75;;;;;;;17.92;40.47;100642.53;8463935;34;20432;-76
2021/10/25 12:56:38;;;;;;;4.20;3.30;;;;;;;16.68;42.82;100640.19;8462137;34;21006;-75
2021/10/25 13:01:53;;;;;;;5.82;3.30;;;;;;;15.95;44.85;100632.19;8465374;34;20308;-76
2021/10/25 13:06:57;;;;;;;4.40;2.75;;;;;;;16.59;44.26;100636.56;8468364;34;20141;-76
2021/10/25 13:12:00;;;;;;;4.55;2.83;;;;;;;16.02;44.80;100643.28;8468072;33;20422;-76
2021/10/25 13:17:07;;;;;;;5.35;3.30;;;;;;;16.00;45.45;100637.16;8469046;33;20413;-76
2021/10/25 13:22:12;;;;;;;8.65;3.22;;;;;;;15.91;45.43;100631.66;8469734;34;20146;-76
2021/10/25 13:27:15;;;;;;;5.20;3.05;;;;;;;16.73;45.10;100618.88;8489302;33;20922;-76
2021/10/25 13:32:21;;;;;;;5.45;3.65;;;;;;;16.34;44.99;100616.50;8468467;34;20474;-76
2021/10/25 13:37:25;;;;;;;4.20;2.85;;;;;;;15.12;48.03;100615.09;8464227;34;20169;-76
2021/10/25 13:42:28;;;;;;;4.68;3.33;;;;;;;15.30;48.54;100615.16;8468504;34;20418;-76
2021/10/25 13:47:33;;;;;;;5.05;3.45;;;;;;;15.63;47.46;100614.59;8469263;34;20840;-76
2021/10/25 13:52:37;;;;;;;7.40;3.53;;;;;;;15.34;48.25;100611.16;8463624;33;20729;-76
2021/10/25 13:57:41;;;;;;;4.93;3.33;;;;;;;14.79;48.90;100612.78;8486541;33;20180;-75
2021/10/25 14:02:47;;;;;;;4.53;3.20;;;;;;;14.19;50.89;100611.28;8468577;34;20232;-75
2021/10/25 14:07:51;;;;;;;4.32;3.40;;;;;;;13.94;51.61;100605.44;8465111;34;20237;-76
2021/10/25 14:12:57;;;;;;;5.22;2.85;;;;;;;13.44;53.09;100600.94;8464455;34;20538;-75
2021/10/25 14:18:01;;;;;;;5.65;3.25;;;;;;;13.61;52.82;100585.06;8540154;28;20156;-75
2021/10/25 14:23:06;;;;;;;7.82;3.42;;;;;;;14.34;51.78;100582.81;8552193;33;20434;-75
2021/10/25 14:28:10;;;;;;;6.05;3.00;;;;;;;16.78;46.51;100575.84;8579240;33;20506;-76
2021/10/25 14:33:14;;;;;;;4.22;3.22;;;;;;;17.37;44.17;100575.97;8580516;33;20982;-75
2021/10/25 14:38:29;;;;;;;6.20;3.33;;;;;;;17.78;43.58;100550.78;8575524;33;20176;-76
2021/10/25 14:43:35;;;;;;;5.05;3.00;;;;;;;17.96;42.90;100553.34;8573898;33;20419;-76
2021/10/25 14:48:49;;;;;;;6.00;3.38;;;;;;;16.67;45.40;100557.09;8573489;33;20148;-75
2021/10/25 14:53:55;;;;;;;5.68;3.88;;;;;;;16.12;46.10;100563.59;8574873;33;20631;-75
2021/10/25 14:58:58;;;;;;;5.30;3.38;;;;;;;15.73;47.12;100564.94;8582977;33;20192;-75
2021/10/25 15:04:06;;;;;;;3.42;3.03;;;;;;;14.77;49.72;100567.97;8539427;33;20283;-76
2021/10/25 15:09:09;;;;;;;6.22;3.22;;;;;;;14.22;51.58;100574.00;8526883;33;20145;-76
2021/10/25 15:14:13;;;;;;;4.80;3.10;;;;;;;13.96;52.55;100571.06;8526181;33;20665;-75
2021/10/25 15:19:18;;;;;;;5.72;2.97;;;;;;;13.90;52.87;100566.19;8526407;33;20564;-75
2021/10/25 15:24:22;;;;;;;6.68;2.88;;;;;;;14.12;52.72;100570.44;8538134;33;20713;-75
2021/10/25 15:29:25;;;;;;;5.45;3.33;;;;;;;13.76;53.31;100566.63;8527225;33;20566;-75
2021/10/25 15:34:30;;;;;;;4.18;3.35;;;;;;;13.56;54.14;100571.13;8504517;33;20421;-75
2021/10/25 15:39:33;;;;;;;4.97;2.92;;;;;;;13.19;55.00;100572.59;8502460;33;20696;-76
2021/10/25 15:44:38;;;;;;;4.55;3.15;;;;;;;12.98;55.77;100569.09;8521524;33;20279;-76
2021/10/25 15:49:43;;;;;;;10.10;3.70;;;;;;;12.94;55.90;100571.19;8521892;33;20399;-76
2021/10/25 15:54:47;;;;;;;5.03;3.47;;;;;;;12.84;56.49;100573.00;8521001;33;20422;-76
2021/10/25 15:59:52;;;;;;;5.28;3.67;;;;;;;12.75;56.30;100554.91;8517124;33;20427;-76
2021/10/25 16:04:56;;;;;;;3.58;3.15;;;;;;;12.63;56.69;100548.78;8520212;33;20160;-76
2021/10/25 16:09:59;;;;;;;5.18;3.53;;;;;;;12.56;56.88;100551.16;8519584;33;20549;-75
2021/10/25 16:15:04;;;;;;;7.85;4.40;;;;;;;12.50;57.13;100546.28;8518543;33;20422;-76
2021/10/25 16:20:10;;;;;;;7.68;5.10;;;;;;;12.45;57.71;100540.47;8519391;33;20710;-75
2021/10/25 16:25:13;;;;;;;6.57;4.20;;;;;;;12.39;57.69;100554.44;8520395;33;20517;-76
2021/10/25 16:30:16;;;;;;;5.75;4.35;;;;;;;12.17;59.81;100550.00;8519895;33;20493;-76
2021/10/25 16:35:21;;;;;;;6.53;4.03;;;;;;;12.05;60.31;100551.06;8518036;33;21165;-76
2021/10/25 16:40:24;;;;;;;5.93;3.83;;;;;;;12.04;60.29;100549.31;8515570;33;20674;-74
2021/10/25 16:45:28;;;;;;;4.38;3.83;;;;;;;12.04;60.22;100552.91;8516013;33;20481;-75
2021/10/25 16:50:35;;;;;;;4.70;3.33;;;;;;;11.99;59.97;100563.19;8518571;33;20425;-74
2021/10/25 16:55:45;;;;;;;5.88;3.47;;;;;;;12.03;60.04;100564.63;8528054;33;20408;-74
2021/10/25 17:06:31;;;;;;;3.80;3.28;;;;;;;12.07;59.50;100568.78;8513887;33;20145;-76
2021/10/25 17:11:36;;;;;;;8.20;3.72;;;;;;;12.09;59.35;100556.03;8531752;33;20478;-76
2021/10/25 17:16:39;;;;;;;6.15;3.75;;;;;;;12.01;59.56;100549.59;8530486;33;20147;-75
2021/10/25 17:21:45;;;;;;;5.97;4.50;;;;;;;11.85;60.28;100553.59;8498995;33;20149;-75
2021/10/25 17:26:48;;;;;;;7.43;5.07;;;;;;;11.61;62.20;100561.00;8519211;33;20492;-75
2021/10/25 17:31:52;;;;;;;7.40;5.18;;;;;;;11.63;62.62;100567.97;8518264;33;20919;-75
2021/10/25 17:36:57;;;;;;;7.93;5.45;;;;;;;11.54;62.75;100565.19;8516938;33;20996;-75
2021/10/25 17:42:03;;;;;;;8.98;5.82;;;;;;;11.55;62.84;100567.75;8516700;33;20485;-75
2021/10/25 17:47:07;;;;;;;7.43;5.75;;;;;;;11.45;62.96;100556.88;8512859;33;20413;-75
2021/10/25 17:52:13;;;;;;;10.40;6.95;;;;;;;11.33;63.42;100559.75;8518593;33;20574;-75
2021/10/25 17:57:16;;;;;;;15.02;7.45;;;;;;;11.35;63.47;100563.13;8518411;33;20926;-75
2021/10/25 18:02:20;;;;;;;9.02;6.57;;;;;;;11.35;63.35;100560.44;8519889;33;20619;-75
2021/10/25 18:07:29;;;;;;;9.75;6.55;;;;;;;11.31;63.78;100559.00;8524756;33;20145;-75
2021/10/25 18:12:32;;;;;;;9.98;6.40;;;;;;;11.27;63.95;100566.44;8523433;33;21018;-75
2021/10/25 18:17:35;;;;;;;9.60;7.50;;;;;;;11.25;64.07;100569.28;8499584;33;20430;-75
2021/10/25 18:22:40;;;;;;;10.70;6.60;;;;;;;11.19;64.95;100577.84;8523573;33;20910;-76
2021/10/25 18:27:45;;;;;;;8.18;6.05;;;;;;;10.99;65.29;100578.53;8494602;33;20578;-75
2021/10/25 18:32:49;;;;;;;7.25;4.75;;;;;;;11.04;64.74;100579.03;8490119;33;20977;-75
2021/10/25 18:37:54;;;;;;;7.35;4.57;;;;;;;11.12;64.68;100579.31;8512426;33;20433;-75
2021/10/25 18:42:59;;;;;;;6.82;4.38;;;;;;;11.15;66.19;100571.00;8510886;33;20241;-74
2021/10/25 18:48:02;;;;;;;7.45;4.70;;;;;;;10.79;69.60;100583.66;8511357;33;20609;-74
2021/10/25 18:53:07;;;;;;;7.43;5.22;;;;;;;10.54;72.48;100583.88;8509173;33;20532;-75
2021/10/25 18:58:10;;;;;;;9.30;4.80;;;;;;;10.35;74.41;100592.50;8512577;33;21003;-74
2021/10/25 19:03:14;;;;;;;8.80;5.07;;;;;;;10.27;75.42;100600.28;8495380;33;20421;-74
2021/10/25 19:08:18;;;;;;;10.02;5.70;;;;;;;10.25;75.64;100586.13;8517938;33;20526;-75
2021/10/25 19:13:23;;;;;;;11.32;6.88;;;;;;;10.20;76.16;100573.03;8516555;33;20412;-75
2021/10/25 19:18:26;;;;;;;9.60;6.65;;;;;;;9.90;79.15;100586.97;8517494;33;20129;-75
2021/10/25 19:23:32;;;;;;;13.30;6.57;;;;;;;9.47;83.36;100592.81;8522235;33;20768;-76
2021/10/25 19:28:35;;;;;;;11.82;7.28;;;;;;;9.32;84.03;100596.59;8523876;33;20156;-76
2021/10/25 19:33:38;;;;;;;13.05;9.35;;;;;;;9.23;85.51;100590.06;8528922;33;20541;-78
2021/10/25 19:38:47;;;;;;;16.95;8.40;;;;;;;8.93;87.35;100610.06;8532118;33;20290;-77
2021/10/25 19:43:50;;;;;;;14.45;8.55;;;;;;;9.14;87.69;100601.47;8536863;33;20133;-77
2021/10/25 19:48:53;;;;;;;13.95;8.43;;;;;;;9.10;88.07;100603.50;8545338;33;20459;-78
2021/10/25 19:53:58;;;;;;;16.20;9.65;;;;;;;9.02;87.96;100605.88;8529312;33;20422;-78
2021/10/25 19:59:02;;;;;;;15.35;9.63;;;;;;;9.11;88.03;100602.56;8521701;33;20144;-76
2021/10/25 20:04:07;;;;;;;20.15;10.40;;;;;;;9.15;88.29;100600.50;8520274;33;20317;-76
2021/10/25 20:09:12;;;;;;;16.00;10.93;;;;;;;9.17;88.05;100607.47;8519386;33;20426;-76
2021/10/25 20:14:15;;;;;;;20.30;11.15;;;;;;;9.18;88.27;100611.00;8521793;33;20637;-76
2021/10/25 20:19:18;;;;;;;18.92;11.40;;;;;;;9.25;88.34;100612.28;8505847;28;20182;-75
2021/10/25 20:24:24;;;;;;;19.92;11.48;;;;;;;9.30;88.24;100610.13;8490897;34;20445;-76
2021/10/25 20:29:27;;;;;;;21.27;12.32;;;;;;;9.19;88.39;100624.28;8485702;34;20777;-76
2021/10/25 20:34:30;;;;;;;23.55;11.63;;;;;;;9.16;88.15;100623.63;8472641;34;20185;-75
2021/10/25 20:39:34;;;;;;;17.90;11.63;;;;;;;9.29;87.86;100625.34;8474816;34;21125;-75
2021/10/25 20:44:37;;;;;;;22.02;12.65;;;;;;;9.33;88.16;100625.13;8486460;34;20453;-75
2021/10/25 20:49:40;;;;;;;22.23;12.98;;;;;;;9.35;87.73;100626.75;8485612;34;20996;-76
2021/10/25 20:54:45;;;;;;;22.30;12.57;;;;;;;9.36;87.93;100619.56;8486986;34;20507;-76
2021/10/25 20:59:48;;;;;;;24.95;14.40;;;;;;;9.33;88.23;100617.94;8484572;34;20237;-76
2021/10/25 21:04:51;;;;;;;27.08;15.07;;;;;;;9.43;88.01;100620.81;8474411;34;20277;-76
2021/10/25 21:09:55;;;;;;;26.85;15.10;;;;;;;9.39;88.14;100620.19;8470212;34;20637;-76
2021/10/25 21:14:58;;;;;;;26.98;16.50;;;;;;;9.46;87.97;100615.22;8469929;34;20414;-76
2021/10/25 21:20:02;;;;;;;26.65;15.35;;;;;;;9.44;87.87;100625.22;8475419;34;20931;-76
2021/10/25 21:25:07;;;;;;;25.98;15.30;;;;;;;9.43;88.38;100618.97;8482510;34;20138;-75
2021/10/25 21:30:11;;;;;;;27.33;15.32;;;;;;;9.59;87.12;100620.53;8484252;34;20538;-75
2021/10/25 21:35:14;;;;;;;26.60;16.02;;;;;;;9.49;87.44;100612.34;8488046;34;20431;-75
2021/10/25 21:40:19;;;;;;;28.23;16.35;;;;;;;9.43;87.27;100616.28;8488632;34;20448;-75
2021/10/25 21:45:22;;;;;;;25.05;14.68;;;;;;;9.46;86.84;100616.09;8488348;34;20520;-75
2021/10/25 21:50:26;;;;;;;25.40;14.52;;;;;;;9.53;86.97;100612.97;8488457;34;20547;-75
2021/10/25 21:55:31;;;;;;;24.15;14.93;;;;;;;9.63;86.67;100620.22;8487348;34;20869;-75
2021/10/25 22:00:36;;;;;;;28.77;15.35;;;;;;;9.68;86.53;100625.22;8484708;34;20276;-75
2021/10/25 22:05:40;;;;;;;29.73;15.93;;;;;;;9.54;86.69;100625.38;8484164;34;21081;-75
2021/10/25 22:10:44;;;;;;;25.58;14.68;;;;;;;9.63;87.04;100627.41;8486894;34;20284;-75
2021/10/25 22:15:48;;;;;;;28.88;15.25;;;;;;;9.75;86.57;100626.50;8480218;34;20529;-75
2021/10/25 22:20:51;;;;;;;25.80;15.27;;;;;;;9.80;85.86;100627.03;8481682;34;20181;-75
2021/10/25 22:25:56;;;;;;;26.15;15.23;;;;;;;9.79;86.10;100632.47;8479753;34;20712;-74
2021/10/25 22:31:00;;;;;;;29.65;17.10;;;;;;;9.69;86.03;100630.50;8481569;33;20926;-75
2021/10/25 22:36:03;;;;;;;26.08;16.90;;;;;;;9.72;85.75;100630.25;8479766;34;20653;-75
2021/10/25 22:41:07;;;;;;;27.10;14.13;;;;;;;9.54;85.29;100636.09;8472444;34;20261;-75
2021/10/25 22:46:10;;;;;;;28.90;16.77;;;;;;;9.67;85.40;100635.09;8470885;34;20412;-75
2021/10/25 22:51:13;;;;;;;30.95;18.08;;;;;;;9.55;85.61;100643.22;8472033;34;20593;-75
2021/10/25 22:56:18;;;;;;;32.60;17.58;;;;;;;9.63;85.42;100644.34;8469487;34;20453;-75
2021/10/25 23:01:21;;;;;;;29.02;17.55;;;;;;;9.66;85.66;100637.91;8468870;34;20231;-75
2021/10/25 23:06:24;;;;;;;32.75;18.00;;;;;;;9.75;85.19;100637.22;8472518;34;20138;-75
2021/10/25 23:11:28;;;;;;;34.25;18.38;;;;;;;9.76;85.50;100644.28;8472536;34;20228;-75
2021/10/25 23:16:31;;;;;;;33.72;18.98;;;;;;;9.47;85.91;100641.06;8472671;34;20460;-75
2021/10/25 23:21:35;;;;;;;32.85;17.17;;;;;;;9.50;85.76;100636.34;8483331;34;20425;-75
2021/10/25 23:26:39;;;;;;;34.70;18.98;;;;;;;9.51;85.61;100624.63;8482384;34;20173;-75
2021/10/25 23:31:42;;;;;;;34.28;19.10;;;;;;;9.65;85.33;100633.50;8476715;34;20228;-75
2021/10/25 23:36:47;;;;;;;34.35;18.85;;;;;;;9.66;85.54;100638.75;8469158;34;20434;-75
2021/10/25 23:41:52;;;;;;;34.50;18.15;;;;;;;9.66;85.11;100632.56;8467787;34;20429;-75
2021/10/25 23:46:55;;;;;;;36.17;19.40;;;;;;;9.63;85.67;100641.69;8462237;34;20462;-75
2021/10/25 23:51:58;;;;;;;34.92;18.17;;;;;;;9.70;85.34;100642.06;8462760;34;20145;-75
2021/10/25 23:57:02;;;;;;;38.22;20.02;;;;;;;9.68;85.66;100639.53;8462990;34;20142;-75
